sensor_id;sensor_type;location;lat;lon;timestamp;pressure;altitude;pressure_sealevel;temperature;humidity
40650;BME280;26342;42.826;23.992;2023-07-29T00:00:36;95215.69;;;16.34;100.00
40650;BME280;26342;42.826;23.992;2023-07-29T00:03:02;95212.31;;;16.28;100.00
40650;BME280;26342;42.826;23.992;2023-07-29T00:05:27;95221.75;;;16.26;100.00
40650;BME280;26342;42.826;23.992;2023-07-29T00:07:52;95217.56;;;16.19;100.00
40650;BME280;26342;42.826;23.992;2023-07-29T00:10:18;95215.50;;;16.30;100.00
40650;BME280;26342;42.826;23.992;2023-07-29T00:12:43;95209.19;;;16.21;100.00
40650;BME280;26342;42.826;23.992;2023-07-29T00:15:09;95209.28;;;16.16;100.00
40650;BME280;26342;42.826;23.992;2023-07-29T00:17:35;95205.47;;;16.17;100.00
40650;BME280;26342;42.826;23.992;2023-07-29T00:20:00;95206.09;;;16.14;100.00
40650;BME280;26342;42.826;23.992;2023-07-29T00:22:25;95215.03;;;16.09;100.00
40650;BME280;26342;42.826;23.992;2023-07-29T00:24:52;95211.34;;;16.05;100.00
40650;BME280;26342;42.826;23.992;2023-07-29T00:27:20;95211.34;;;16.05;100.00
40650;BME280;26342;42.826;23.992;2023-07-29T00:29:45;95219.72;;;16.04;100.00
40650;BME280;26342;42.826;23.992;2023-07-29T00:32:10;95219.50;;;16.00;100.00
40650;BME280;26342;42.826;23.992;2023-07-29T00:34:36;95218.78;;;15.95;100.00
40650;BME280;26342;42.826;23.992;2023-07-29T00:37:01;95230.63;;;15.94;100.00
40650;BME280;26342;42.826;23.992;2023-07-29T00:39:26;95223.94;;;15.91;100.00
40650;BME280;26342;42.826;23.992;2023-07-29T00:41:52;95226.22;;;15.84;100.00
40650;BME280;26342;42.826;23.992;2023-07-29T00:44:17;95233.78;;;15.82;100.00
40650;BME280;26342;42.826;23.992;2023-07-29T00:46:45;95214.88;;;15.68;100.00
40650;BME280;26342;42.826;23.992;2023-07-29T00:49:11;95230.16;;;15.73;100.00
40650;BME280;26342;42.826;23.992;2023-07-29T00:51:36;95229.13;;;15.69;100.00
40650;BME280;26342;42.826;23.992;2023-07-29T00:54:02;95219.78;;;15.66;100.00
40650;BME280;26342;42.826;23.992;2023-07-29T00:56:27;95214.09;;;15.68;100.00
40650;BME280;26342;42.826;23.992;2023-07-29T00:58:54;95214.38;;;15.66;100.00
40650;BME280;26342;42.826;23.992;2023-07-29T01:01:24;95225.94;;;15.67;100.00
40650;BME280;26342;42.826;23.992;2023-07-29T01:03:49;95226.28;;;15.60;100.00
40650;BME280;26342;42.826;23.992;2023-07-29T01:11:41;95216.47;;;15.50;100.00
40650;BME280;26342;42.826;23.992;2023-07-29T01:14:27;95204.19;;;15.44;100.00
40650;BME280;26342;42.826;23.992;2023-07-29T01:17:00;95216.03;;;15.43;100.00
40650;BME280;26342;42.826;23.992;2023-07-29T01:19:51;95212.31;;;15.39;100.00
40650;BME280;26342;42.826;23.992;2023-07-29T01:22:21;95224.41;;;15.42;100.00
40650;BME280;26342;42.826;23.992;2023-07-29T01:24:46;95223.81;;;15.45;100.00
40650;BME280;26342;42.826;23.992;2023-07-29T01:27:12;95212.63;;;15.38;100.00
40650;BME280;26342;42.826;23.992;2023-07-29T01:29:37;95214.50;;;15.37;100.00
40650;BME280;26342;42.826;23.992;2023-07-29T01:32:09;95207.81;;;15.34;100.00
40650;BME280;26342;42.826;23.992;2023-07-29T01:34:44;95214.50;;;15.37;100.00
40650;BME280;26342;42.826;23.992;2023-07-29T01:37:15;95222.88;;;15.35;100.00
40650;BME280;26342;42.826;23.992;2023-07-29T01:39:44;95216.75;;;15.30;100.00
40650;BME280;26342;42.826;23.992;2023-07-29T01:42:10;95210.44;;;15.21;100.00
40650;BME280;26342;42.826;23.992;2023-07-29T01:44:36;95210.22;;;15.17;100.00
40650;BME280;26342;42.826;23.992;2023-07-29T01:47:02;95206.78;;;15.12;100.00
40650;BME280;26342;42.826;23.992;2023-07-29T01:49:27;95220.16;;;15.17;100.00
40650;BME280;26342;42.826;23.992;2023-07-29T01:51:53;95214.34;;;15.10;100.00
40650;BME280;26342;42.826;23.992;2023-07-29T01:54:18;95201.34;;;15.17;100.00
40650;BME280;26342;42.826;23.992;2023-07-29T01:56:43;95210.34;;;15.07;100.00
40650;BME280;26342;42.826;23.992;2023-07-29T01:59:09;95221.31;;;15.11;100.00
40650;BME280;26342;42.826;23.992;2023-07-29T02:01:34;95218.69;;;15.05;100.00
40650;BME280;26342;42.826;23.992;2023-07-29T02:04:00;95213.38;;;15.00;100.00
40650;BME280;26342;42.826;23.992;2023-07-29T02:06:25;95216.06;;;15.00;100.00
40650;BME280;26342;42.826;23.992;2023-07-29T02:08:52;95210.97;;;14.99;100.00
40650;BME280;26342;42.826;23.992;2023-07-29T02:11:17;95214.00;;;14.92;100.00
40650;BME280;26342;42.826;23.992;2023-07-29T02:13:45;95212.72;;;14.90;100.00
40650;BME280;26342;42.826;23.992;2023-07-29T02:16:11;95225.63;;;14.88;100.00
40650;BME280;26342;42.826;23.992;2023-07-29T02:18:36;95221.09;;;14.83;100.00
40650;BME280;26342;42.826;23.992;2023-07-29T02:21:02;95222.19;;;14.82;100.00
40650;BME280;26342;42.826;23.992;2023-07-29T02:23:28;95218.25;;;14.74;100.00
40650;BME280;26342;42.826;23.992;2023-07-29T02:25:53;95220.38;;;14.77;100.00
40650;BME280;26342;42.826;23.992;2023-07-29T02:28:19;95218.50;;;14.78;100.00
40650;BME280;26342;42.826;23.992;2023-07-29T02:30:44;95214.47;;;14.75;100.00
40650;BME280;26342;42.826;23.992;2023-07-29T02:33:10;95214.03;;;14.68;100.00
40650;BME280;26342;42.826;23.992;2023-07-29T02:35:35;95214.25;;;14.72;100.00
40650;BME280;26342;42.826;23.992;2023-07-29T02:38:01;95209.44;;;14.69;100.00
40650;BME280;26342;42.826;23.992;2023-07-29T02:40:26;95221.56;;;14.66;100.00
40650;BME280;26342;42.826;23.992;2023-07-29T02:42:52;95225.69;;;14.59;100.00
40650;BME280;26342;42.826;23.992;2023-07-29T02:45:17;95223.88;;;14.54;100.00
40650;BME280;26342;42.826;23.992;2023-07-29T02:47:43;95229.50;;;14.52;100.00
40650;BME280;26342;42.826;23.992;2023-07-29T02:50:08;95219.13;;;14.46;100.00
40650;BME280;26342;42.826;23.992;2023-07-29T02:52:34;95235.97;;;14.51;100.00
40650;BME280;26342;42.826;23.992;2023-07-29T02:54:59;95230.09;;;14.49;100.00
40650;BME280;26342;42.826;23.992;2023-07-29T02:57:25;95232.97;;;14.53;100.00
40650;BME280;26342;42.826;23.992;2023-07-29T02:59:50;95227.84;;;14.57;100.00
40650;BME280;26342;42.826;23.992;2023-07-29T03:02:15;95240.81;;;14.49;100.00
40650;BME280;26342;42.826;23.992;2023-07-29T03:04:41;95238.94;;;14.50;100.00
40650;BME280;26342;42.826;23.992;2023-07-29T03:07:06;95237.03;;;14.50;100.00
40650;BME280;26342;42.826;23.992;2023-07-29T03:09:32;95235.97;;;14.51;100.00
40650;BME280;26342;42.826;23.992;2023-07-29T03:11:58;95244.78;;;14.57;100.00
40650;BME280;26342;42.826;23.992;2023-07-29T03:14:24;95249.38;;;14.51;100.00
40650;BME280;26342;42.826;23.992;2023-07-29T03:16:49;95241.63;;;14.50;100.00
40650;BME280;26342;42.826;23.992;2023-07-29T03:19:15;95243.78;;;14.48;100.00
40650;BME280;26342;42.826;23.992;2023-07-29T03:21:40;95229.88;;;14.41;100.00
40650;BME280;26342;42.826;23.992;2023-07-29T03:24:06;95224.53;;;14.36;100.00
40650;BME280;26342;42.826;23.992;2023-07-29T03:26:32;95239.22;;;14.43;100.00
40650;BME280;26342;42.826;23.992;2023-07-29T03:28:57;95251.34;;;14.46;100.00
40650;BME280;26342;42.826;23.992;2023-07-29T03:31:23;95251.94;;;14.38;100.00
40650;BME280;26342;42.826;23.992;2023-07-29T03:33:48;95248.19;;;14.34;100.00
40650;BME280;26342;42.826;23.992;2023-07-29T03:36:13;95240.72;;;14.31;100.00
40650;BME280;26342;42.826;23.992;2023-07-29T03:38:39;95245.22;;;14.35;100.00
40650;BME280;26342;42.826;23.992;2023-07-29T03:41:07;95250.31;;;14.37;100.00
40650;BME280;26342;42.826;23.992;2023-07-29T03:43:32;95244.72;;;14.33;100.00
40650;BME280;26342;42.826;23.992;2023-07-29T03:45:59;95251.09;;;14.37;100.00
40650;BME280;26342;42.826;23.992;2023-07-29T03:48:25;95248.88;;;14.44;100.00
40650;BME280;26342;42.826;23.992;2023-07-29T03:50:50;95247.78;;;14.50;100.00
40650;BME280;26342;42.826;23.992;2023-07-29T03:53:16;95249.09;;;14.53;100.00
40650;BME280;26342;42.826;23.992;2023-07-29T03:55:42;95257.28;;;14.67;100.00
40650;BME280;26342;42.826;23.992;2023-07-29T03:58:07;95252.38;;;14.74;100.00
40650;BME280;26342;42.826;23.992;2023-07-29T04:00:33;95256.59;;;14.80;100.00
40650;BME280;26342;42.826;23.992;2023-07-29T04:02:58;95253.28;;;14.88;100.00
40650;BME280;26342;42.826;23.992;2023-07-29T04:05:23;95258.16;;;14.86;100.00
40650;BME280;26342;42.826;23.992;2023-07-29T04:07:49;95255.34;;;14.96;100.00
40650;BME280;26342;42.826;23.992;2023-07-29T04:10:14;95254.22;;;15.02;100.00
40650;BME280;26342;42.826;23.992;2023-07-29T04:12:40;95250.88;;;15.11;100.00
40650;BME280;26342;42.826;23.992;2023-07-29T04:15:06;95254.47;;;15.25;100.00
40650;BME280;26342;42.826;23.992;2023-07-29T04:17:31;95248.84;;;15.21;100.00
40650;BME280;26342;42.826;23.992;2023-07-29T04:19:57;95253.59;;;15.29;100.00
40650;BME280;26342;42.826;23.992;2023-07-29T04:22:22;95242.97;;;15.38;100.00
40650;BME280;26342;42.826;23.992;2023-07-29T04:24:47;95253.38;;;15.45;100.00
40650;BME280;26342;42.826;23.992;2023-07-29T04:27:13;95253.88;;;15.47;100.00
40650;BME280;26342;42.826;23.992;2023-07-29T04:29:38;95251.06;;;15.57;100.00
40650;BME280;26342;42.826;23.992;2023-07-29T04:32:04;95246.16;;;15.64;100.00
40650;BME280;26342;42.826;23.992;2023-07-29T04:34:30;95252.97;;;15.75;100.00
40650;BME280;26342;42.826;23.992;2023-07-29T04:36:55;95248.53;;;15.84;100.00
40650;BME280;26342;42.826;23.992;2023-07-29T04:39:21;95240.28;;;15.95;100.00
40650;BME280;26342;42.826;23.992;2023-07-29T04:41:46;95252.72;;;16.09;100.00
40650;BME280;26342;42.826;23.992;2023-07-29T04:44:12;95254.06;;;16.26;100.00
40650;BME280;26342;42.826;23.992;2023-07-29T04:46:37;95251.00;;;16.32;100.00
40650;BME280;26342;42.826;23.992;2023-07-29T04:49:04;95250.59;;;16.39;100.00
40650;BME280;26342;42.826;23.992;2023-07-29T04:51:29;95246.50;;;16.41;100.00
40650;BME280;26342;42.826;23.992;2023-07-29T04:53:55;95250.66;;;16.53;100.00
40650;BME280;26342;42.826;23.992;2023-07-29T04:56:20;95231.47;;;16.54;100.00
40650;BME280;26342;42.826;23.992;2023-07-29T04:58:45;95256.78;;;16.72;100.00
40650;BME280;26342;42.826;23.992;2023-07-29T05:01:11;95255.59;;;16.78;100.00
40650;BME280;26342;42.826;23.992;2023-07-29T05:03:36;95253.41;;;16.94;100.00
40650;BME280;26342;42.826;23.992;2023-07-29T05:06:03;95258.50;;;17.09;100.00
40650;BME280;26342;42.826;23.992;2023-07-29T05:08:29;95253.97;;;17.18;100.00
40650;BME280;26342;42.826;23.992;2023-07-29T05:10:54;95245.69;;;17.28;100.00
40650;BME280;26342;42.826;23.992;2023-07-29T05:13:21;95258.66;;;17.40;100.00
40650;BME280;26342;42.826;23.992;2023-07-29T05:15:47;95256.34;;;17.47;100.00
40650;BME280;26342;42.826;23.992;2023-07-29T05:18:14;95267.09;;;17.61;100.00
40650;BME280;26342;42.826;23.992;2023-07-29T05:20:39;95257.31;;;17.79;100.00
40650;BME280;26342;42.826;23.992;2023-07-29T05:23:05;95255.34;;;17.93;100.00
40650;BME280;26342;42.826;23.992;2023-07-29T05:25:30;95255.47;;;18.10;100.00
40650;BME280;26342;42.826;23.992;2023-07-29T05:27:55;95249.03;;;18.20;100.00
40650;BME280;26342;42.826;23.992;2023-07-29T05:30:22;95252.09;;;18.27;100.00
40650;BME280;26342;42.826;23.992;2023-07-29T05:32:47;95258.47;;;18.31;100.00
40650;BME280;26342;42.826;23.992;2023-07-29T05:35:13;95260.78;;;18.47;100.00
40650;BME280;26342;42.826;23.992;2023-07-29T05:37:40;95256.72;;;18.58;100.00
40650;BME280;26342;42.826;23.992;2023-07-29T05:40:06;95244.59;;;18.78;100.00
40650;BME280;26342;42.826;23.992;2023-07-29T05:42:33;95260.13;;;19.03;100.00
40650;BME280;26342;42.826;23.992;2023-07-29T05:44:58;95253.34;;;19.14;100.00
40650;BME280;26342;42.826;23.992;2023-07-29T05:47:23;95250.38;;;19.33;100.00
40650;BME280;26342;42.826;23.992;2023-07-29T05:49:49;95248.66;;;19.46;100.00
40650;BME280;26342;42.826;23.992;2023-07-29T05:52:14;95239.00;;;19.62;100.00
40650;BME280;26342;42.826;23.992;2023-07-29T05:54:40;95241.88;;;19.92;100.00
40650;BME280;26342;42.826;23.992;2023-07-29T05:57:08;95239.47;;;20.07;100.00
40650;BME280;26342;42.826;23.992;2023-07-29T05:59:34;95234.84;;;20.17;100.00
40650;BME280;26342;42.826;23.992;2023-07-29T06:01:59;95232.75;;;20.31;100.00
40650;BME280;26342;42.826;23.992;2023-07-29T06:04:24;95243.25;;;20.50;100.00
40650;BME280;26342;42.826;23.992;2023-07-29T06:06:50;95227.97;;;20.54;100.00
40650;BME280;26342;42.826;23.992;2023-07-29T06:09:15;95239.69;;;20.75;100.00
40650;BME280;26342;42.826;23.992;2023-07-29T06:11:40;95242.81;;;20.95;100.00
40650;BME280;26342;42.826;23.992;2023-07-29T06:14:06;95236.50;;;21.11;100.00
40650;BME280;26342;42.826;23.992;2023-07-29T06:16:31;95242.66;;;21.29;100.00
40650;BME280;26342;42.826;23.992;2023-07-29T06:18:56;95224.88;;;21.40;100.00
40650;BME280;26342;42.826;23.992;2023-07-29T06:21:22;95221.91;;;21.54;100.00
40650;BME280;26342;42.826;23.992;2023-07-29T06:23:47;95225.44;;;21.76;100.00
40650;BME280;26342;42.826;23.992;2023-07-29T06:26:13;95221.13;;;21.95;100.00
40650;BME280;26342;42.826;23.992;2023-07-29T06:28:38;95225.19;;;22.10;100.00
40650;BME280;26342;42.826;23.992;2023-07-29T06:31:04;95215.75;;;22.28;100.00
40650;BME280;26342;42.826;23.992;2023-07-29T06:33:29;95226.34;;;22.54;100.00
40650;BME280;26342;42.826;23.992;2023-07-29T06:35:54;95215.72;;;22.74;100.00
40650;BME280;26342;42.826;23.992;2023-07-29T06:38:20;95223.97;;;22.86;100.00
40650;BME280;26342;42.826;23.992;2023-07-29T06:40:50;95218.41;;;22.95;100.00
40650;BME280;26342;42.826;23.992;2023-07-29T06:43:16;95218.41;;;23.19;100.00
40650;BME280;26342;42.826;23.992;2023-07-29T06:45:42;95218.28;;;23.40;100.00
40650;BME280;26342;42.826;23.992;2023-07-29T06:48:07;95215.09;;;23.50;100.00
40650;BME280;26342;42.826;23.992;2023-07-29T06:50:33;95214.31;;;23.62;98.31
40650;BME280;26342;42.826;23.992;2023-07-29T06:52:58;95219.16;;;23.81;94.97
40650;BME280;26342;42.826;23.992;2023-07-29T06:55:23;95214.91;;;23.95;95.88
40650;BME280;26342;42.826;23.992;2023-07-29T06:57:49;95222.00;;;24.12;92.80
40650;BME280;26342;42.826;23.992;2023-07-29T07:00:14;95219.34;;;24.28;89.30
40650;BME280;26342;42.826;23.992;2023-07-29T07:02:40;95217.34;;;24.41;87.31
40650;BME280;26342;42.826;23.992;2023-07-29T07:05:05;95212.22;;;24.52;89.33
40650;BME280;26342;42.826;23.992;2023-07-29T07:07:31;95206.66;;;24.64;82.65
40650;BME280;26342;42.826;23.992;2023-07-29T07:09:56;95210.66;;;24.82;83.72
40650;BME280;26342;42.826;23.992;2023-07-29T07:12:22;95206.50;;;24.88;82.21
40650;BME280;26342;42.826;23.992;2023-07-29T07:14:47;95206.78;;;24.99;81.21
40650;BME280;26342;42.826;23.992;2023-07-29T07:17:13;95205.22;;;25.14;81.11
40650;BME280;26342;42.826;23.992;2023-07-29T07:19:38;95196.22;;;25.29;82.63
40650;BME280;26342;42.826;23.992;2023-07-29T07:22:04;95201.31;;;25.46;77.13
40650;BME280;26342;42.826;23.992;2023-07-29T07:24:29;95193.34;;;25.57;74.63
40650;BME280;26342;42.826;23.992;2023-07-29T07:26:54;95196.31;;;25.68;72.03
40650;BME280;26342;42.826;23.992;2023-07-29T07:29:20;95196.47;;;25.75;71.98
40650;BME280;26342;42.826;23.992;2023-07-29T07:31:53;95195.56;;;25.86;71.90
40650;BME280;26342;42.826;23.992;2023-07-29T07:34:19;95195.41;;;25.99;69.63
40650;BME280;26342;42.826;23.992;2023-07-29T07:36:45;95195.44;;;26.18;67.83
40650;BME280;26342;42.826;23.992;2023-07-29T07:39:10;95198.38;;;26.29;67.37
40650;BME280;26342;42.826;23.992;2023-07-29T07:41:35;95202.94;;;26.40;65.25
40650;BME280;26342;42.826;23.992;2023-07-29T07:44:01;95196.91;;;26.54;63.45
40650;BME280;26342;42.826;23.992;2023-07-29T07:46:28;95198.72;;;26.66;57.71
40650;BME280;26342;42.826;23.992;2023-07-29T07:48:53;95196.94;;;26.77;54.52
40650;BME280;26342;42.826;23.992;2023-07-29T07:51:19;95200.59;;;26.85;57.72
40650;BME280;26342;42.826;23.992;2023-07-29T07:53:44;95198.09;;;26.99;57.43
40650;BME280;26342;42.826;23.992;2023-07-29T07:56:10;95193.97;;;27.09;55.06
40650;BME280;26342;42.826;23.992;2023-07-29T07:58:35;95202.31;;;27.16;55.17
40650;BME280;26342;42.826;23.992;2023-07-29T08:01:03;95211.19;;;27.32;56.88
40650;BME280;26342;42.826;23.992;2023-07-29T08:03:29;95208.19;;;27.41;54.12
40650;BME280;26342;42.826;23.992;2023-07-29T08:05:55;95213.88;;;27.55;56.38
40650;BME280;26342;42.826;23.992;2023-07-29T08:08:20;95207.72;;;27.62;57.71
40650;BME280;26342;42.826;23.992;2023-07-29T08:10:45;95214.97;;;27.73;56.07
40650;BME280;26342;42.826;23.992;2023-07-29T08:13:11;95214.34;;;27.87;56.45
40650;BME280;26342;42.826;23.992;2023-07-29T08:15:36;95212.97;;;28.00;53.59
40650;BME280;26342;42.826;23.992;2023-07-29T08:18:01;95200.03;;;27.97;56.53
40650;BME280;26342;42.826;23.992;2023-07-29T08:20:27;95207.19;;;28.09;55.11
40650;BME280;26342;42.826;23.992;2023-07-29T08:22:52;95195.28;;;28.28;52.99
40650;BME280;26342;42.826;23.992;2023-07-29T08:25:18;95200.22;;;28.45;52.86
40650;BME280;26342;42.826;23.992;2023-07-29T08:27:43;95200.72;;;28.58;52.59
40650;BME280;26342;42.826;23.992;2023-07-29T08:30:09;95202.06;;;28.75;51.97
40650;BME280;26342;42.826;23.992;2023-07-29T08:32:34;95202.66;;;28.91;51.67
40650;BME280;26342;42.826;23.992;2023-07-29T08:34:59;95201.44;;;28.88;49.05
40650;BME280;26342;42.826;23.992;2023-07-29T08:37:25;95199.06;;;28.87;51.41
40650;BME280;26342;42.826;23.992;2023-07-29T08:39:52;95192.56;;;29.06;51.47
40650;BME280;26342;42.826;23.992;2023-07-29T08:42:19;95190.63;;;29.06;53.09
40650;BME280;26342;42.826;23.992;2023-07-29T08:44:49;95195.78;;;29.15;52.09
40650;BME280;26342;42.826;23.992;2023-07-29T08:47:15;95198.97;;;29.17;52.49
40650;BME280;26342;42.826;23.992;2023-07-29T08:49:41;95198.94;;;29.13;52.99
40650;BME280;26342;42.826;23.992;2023-07-29T08:52:08;95193.41;;;29.10;52.03
40650;BME280;26342;42.826;23.992;2023-07-29T08:54:34;95192.75;;;29.24;53.29
40650;BME280;26342;42.826;23.992;2023-07-29T08:57:00;95190.06;;;29.34;51.37
40650;BME280;26342;42.826;23.992;2023-07-29T08:59:26;95189.34;;;29.41;51.94
40650;BME280;26342;42.826;23.992;2023-07-29T09:01:54;95184.69;;;29.48;52.20
40650;BME280;26342;42.826;23.992;2023-07-29T09:04:21;95189.38;;;29.48;51.79
40650;BME280;26342;42.826;23.992;2023-07-29T09:06:50;95181.63;;;29.57;50.50
40650;BME280;26342;42.826;23.992;2023-07-29T09:09:15;95179.25;;;29.56;48.46
40650;BME280;26342;42.826;23.992;2023-07-29T09:11:41;95174.94;;;29.55;47.45
40650;BME280;26342;42.826;23.992;2023-07-29T09:14:06;95178.97;;;29.71;48.70
40650;BME280;26342;42.826;23.992;2023-07-29T09:16:32;95173.50;;;29.86;51.59
40650;BME280;26342;42.826;23.992;2023-07-29T09:19:01;95178.25;;;29.92;49.76
40650;BME280;26342;42.826;23.992;2023-07-29T09:21:28;95169.97;;;29.82;46.94
40650;BME280;26342;42.826;23.992;2023-07-29T09:23:54;95177.47;;;29.88;46.24
40650;BME280;26342;42.826;23.992;2023-07-29T09:26:27;95171.56;;;29.90;46.41
40650;BME280;26342;42.826;23.992;2023-07-29T09:28:57;95177.47;;;29.92;48.23
40650;BME280;26342;42.826;23.992;2023-07-29T09:31:24;95170.00;;;29.89;47.93
40650;BME280;26342;42.826;23.992;2023-07-29T09:33:58;95170.50;;;30.09;48.91
40650;BME280;26342;42.826;23.992;2023-07-29T09:36:24;95163.44;;;30.15;44.92
40650;BME280;26342;42.826;23.992;2023-07-29T09:38:53;95169.41;;;30.31;47.03
40650;BME280;26342;42.826;23.992;2023-07-29T09:41:18;95162.31;;;30.30;44.67
40650;BME280;26342;42.826;23.992;2023-07-29T09:43:44;95161.97;;;30.42;44.40
40650;BME280;26342;42.826;23.992;2023-07-29T09:46:09;95157.63;;;30.38;43.53
40650;BME280;26342;42.826;23.992;2023-07-29T09:48:36;95164.75;;;30.42;44.85
40650;BME280;26342;42.826;23.992;2023-07-29T09:51:11;95171.84;;;30.50;42.21
40650;BME280;26342;42.826;23.992;2023-07-29T09:53:45;95160.00;;;30.39;44.29
40650;BME280;26342;42.826;23.992;2023-07-29T09:56:12;95167.91;;;30.51;44.93
40650;BME280;26342;42.826;23.992;2023-07-29T09:58:38;95170.25;;;30.53;44.96
40650;BME280;26342;42.826;23.992;2023-07-29T10:01:07;95172.56;;;30.37;44.05
40650;BME280;26342;42.826;23.992;2023-07-29T10:03:34;95161.22;;;30.52;43.71
40650;BME280;26342;42.826;23.992;2023-07-29T10:06:03;95158.88;;;30.65;45.56
40650;BME280;26342;42.826;23.992;2023-07-29T10:08:30;95162.47;;;30.76;47.17
40650;BME280;26342;42.826;23.992;2023-07-29T10:11:05;95149.88;;;30.82;44.83
40650;BME280;26342;42.826;23.992;2023-07-29T10:13:32;95156.94;;;30.80;44.19
40650;BME280;26342;42.826;23.992;2023-07-29T10:15:58;95153.81;;;30.74;42.24
40650;BME280;26342;42.826;23.992;2023-07-29T10:18:24;95154.97;;;30.80;41.75
40650;BME280;26342;42.826;23.992;2023-07-29T10:20:52;95155.38;;;30.86;42.67
40650;BME280;26342;42.826;23.992;2023-07-29T10:23:18;95159.72;;;30.76;43.03
40650;BME280;26342;42.826;23.992;2023-07-29T10:26:02;95134.47;;;30.64;41.87
40650;BME280;26342;42.826;23.992;2023-07-29T10:28:30;95143.56;;;30.68;42.85
40650;BME280;26342;42.826;23.992;2023-07-29T10:30:56;95147.47;;;30.63;40.14
40650;BME280;26342;42.826;23.992;2023-07-29T10:33:22;95140.00;;;30.60;40.83
40650;BME280;26342;42.826;23.992;2023-07-29T10:35:47;95145.53;;;30.67;42.50
40650;BME280;26342;42.826;23.992;2023-07-29T10:38:13;95128.22;;;30.67;40.41
40650;BME280;26342;42.826;23.992;2023-07-29T10:40:45;95140.03;;;30.71;42.68
40650;BME280;26342;42.826;23.992;2023-07-29T10:43:12;95142.00;;;30.67;40.73
40650;BME280;26342;42.826;23.992;2023-07-29T10:45:41;95132.97;;;30.73;40.95
40650;BME280;26342;42.826;23.992;2023-07-29T10:48:11;95133.75;;;30.81;40.76
40650;BME280;26342;42.826;23.992;2023-07-29T10:50:37;95138.47;;;30.91;40.34
40650;BME280;26342;42.826;23.992;2023-07-29T10:53:03;95130.97;;;30.95;40.32
40650;BME280;26342;42.826;23.992;2023-07-29T10:58:11;95121.94;;;30.84;40.55
40650;BME280;26342;42.826;23.992;2023-07-29T11:00:38;95125.88;;;30.94;38.86
40650;BME280;26342;42.826;23.992;2023-07-29T11:03:06;95111.69;;;30.77;40.14
40650;BME280;26342;42.826;23.992;2023-07-29T11:05:49;95106.97;;;30.71;40.57
40650;BME280;26342;42.826;23.992;2023-07-29T11:08:28;95125.47;;;30.92;42.00
40650;BME280;26342;42.826;23.992;2023-07-29T11:11:07;95121.94;;;30.98;39.21
40650;BME280;26342;42.826;23.992;2023-07-29T11:13:35;95108.94;;;31.02;43.02
40650;BME280;26342;42.826;23.992;2023-07-29T11:16:02;95113.25;;;31.10;39.12
40650;BME280;26342;42.826;23.992;2023-07-29T11:18:29;95100.28;;;31.04;40.80
40650;BME280;26342;42.826;23.992;2023-07-29T11:20:55;95115.22;;;31.10;39.48
40650;BME280;26342;42.826;23.992;2023-07-29T11:23:34;95112.91;;;31.05;39.32
40650;BME280;26342;42.826;23.992;2023-07-29T11:26:00;95117.19;;;30.88;41.85
40650;BME280;26342;42.826;23.992;2023-07-29T11:28:27;95108.94;;;30.92;43.24
40650;BME280;26342;42.826;23.992;2023-07-29T11:30:54;95103.44;;;30.95;41.97
40650;BME280;26342;42.826;23.992;2023-07-29T11:33:21;95110.94;;;31.05;45.34
40650;BME280;26342;42.826;23.992;2023-07-29T11:35:49;95101.84;;;31.08;42.28
40650;BME280;26342;42.826;23.992;2023-07-29T11:38:16;95100.28;;;31.11;39.51
40650;BME280;26342;42.826;23.992;2023-07-29T11:40:42;95105.00;;;31.07;40.16
40650;BME280;26342;42.826;23.992;2023-07-29T11:43:07;95103.44;;;31.06;39.29
40650;BME280;26342;42.826;23.992;2023-07-29T11:45:33;95103.81;;;31.04;41.62
40650;BME280;26342;42.826;23.992;2023-07-29T11:47:58;95102.25;;;31.00;40.78
40650;BME280;26342;42.826;23.992;2023-07-29T11:50:26;95086.91;;;30.88;39.65
40650;BME280;26342;42.826;23.992;2023-07-29T11:52:52;95101.84;;;31.01;42.06
40650;BME280;26342;42.826;23.992;2023-07-29T11:55:17;95094.41;;;30.98;40.69
40650;BME280;26342;42.826;23.992;2023-07-29T11:57:44;95089.66;;;31.02;38.54
40650;BME280;26342;42.826;23.992;2023-07-29T12:00:10;95081.78;;;31.04;40.17
40650;BME280;26342;42.826;23.992;2023-07-29T12:02:39;95082.56;;;30.94;39.10
40650;BME280;26342;42.826;23.992;2023-07-29T12:05:05;95085.72;;;30.93;40.36
40650;BME280;26342;42.826;23.992;2023-07-29T12:07:31;95079.84;;;30.83;40.24
40650;BME280;26342;42.826;23.992;2023-07-29T12:09:58;95083.00;;;30.89;41.50
40650;BME280;26342;42.826;23.992;2023-07-29T12:12:24;95081.78;;;30.79;41.46
40650;BME280;26342;42.826;23.992;2023-07-29T12:14:50;95089.28;;;30.82;40.91
40650;BME280;26342;42.826;23.992;2023-07-29T12:17:15;95082.56;;;30.80;41.75
40650;BME280;26342;42.826;23.992;2023-07-29T12:19:41;95069.22;;;30.82;42.43
40650;BME280;26342;42.826;23.992;2023-07-29T12:22:09;95075.50;;;30.90;41.67
40650;BME280;26342;42.826;23.992;2023-07-29T12:24:39;95062.53;;;30.83;42.57
40650;BME280;26342;42.826;23.992;2023-07-29T12:27:05;95069.59;;;30.77;40.90
40650;BME280;26342;42.826;23.992;2023-07-29T12:29:31;95079.00;;;30.54;40.18
40650;BME280;26342;42.826;23.992;2023-07-29T12:32:03;95068.78;;;30.44;40.76
40650;BME280;26342;42.826;23.992;2023-07-29T12:34:30;95066.41;;;30.46;40.88
40650;BME280;26342;42.826;23.992;2023-07-29T12:36:58;95074.66;;;30.57;40.73
40650;BME280;26342;42.826;23.992;2023-07-29T12:39:30;95073.16;;;30.67;42.47
40650;BME280;26342;42.826;23.992;2023-07-29T12:41:57;95062.13;;;30.74;41.68
40650;BME280;26342;42.826;23.992;2023-07-29T12:44:24;95057.81;;;30.76;39.14
40650;BME280;26342;42.826;23.992;2023-07-29T12:46:50;95064.09;;;30.70;40.14
40650;BME280;26342;42.826;23.992;2023-07-29T12:49:16;95068.81;;;30.66;42.49